Time;durP1;ratioP1;P1;durP2;ratioP2;P2;SDS_P1;SDS_P2;PMS_P1;PMS_P2;Temp;Humidity;BMP_temperature;BMP_pressure;BME280_temperature;BME280_humidity;BME280_pressure;Samples;Min_cycle;Max_cycle;Signal;HPM_P1;HPM_P2
2022/12/08 00:00:21;;;;;;;13.27;6.22;;;;;;;0.36;100.00;98614.97;4470239;32;20119;-74
2022/12/08 00:02:49;;;;;;;16.37;6.80;;;;;;;0.32;100.00;98618.66;4470061;32;20140;-74
2022/12/08 00:10:48;;;;;;;15.57;7.05;;;;;;;0.41;100.00;98613.03;4486080;31;20148;-75
2022/12/08 00:13:16;;;;;;;17.90;7.47;;;;;;;0.45;100.00;98609.38;4485863;32;20132;-74
2022/12/08 00:15:43;;;;;;;14.35;6.85;;;;;;;0.45;100.00;98611.94;4485888;32;20472;-74
2022/12/08 00:18:10;;;;;;;17.35;7.78;;;;;;;0.42;100.00;98596.63;4485751;32;20100;-74
2022/12/08 00:20:37;;;;;;;15.65;7.00;;;;;;;0.44;100.00;98606.87;4480745;31;20131;-74
2022/12/08 00:23:05;;;;;;;17.33;8.07;;;;;;;0.49;100.00;98610.06;4469958;32;20526;-74
2022/12/08 00:25:35;;;;;;;15.02;7.28;;;;;;;0.55;100.00;98604.59;4469919;32;20101;-74
2022/12/08 00:28:02;;;;;;;14.18;6.40;;;;;;;0.56;100.00;98605.41;4470222;32;20080;-74
2022/12/08 00:30:29;;;;;;;15.65;7.68;;;;;;;0.58;100.00;98604.44;4469869;32;20097;-74
2022/12/08 00:32:57;;;;;;;15.45;7.37;;;;;;;0.58;100.00;98601.03;4469845;32;20143;-74
2022/12/08 00:35:24;;;;;;;17.05;7.87;;;;;;;0.63;100.00;98615.34;4469805;32;20158;-74
2022/12/08 00:37:51;;;;;;;15.82;7.82;;;;;;;0.59;100.00;98610.41;4469777;32;20088;-74
2022/12/08 00:40:26;;;;;;;16.23;7.62;;;;;;;0.58;100.00;98622.47;4469911;32;20809;-74
2022/12/08 00:42:54;;;;;;;16.73;7.45;;;;;;;0.60;100.00;98622.41;4469874;32;20097;-74
2022/12/08 00:45:22;;;;;;;16.15;7.30;;;;;;;0.58;100.00;98616.50;4469919;32;20454;-74
2022/12/08 00:47:49;;;;;;;14.55;5.75;;;;;;;0.57;100.00;98617.41;4469789;32;20190;-74
2022/12/08 00:50:16;;;;;;;14.20;6.20;;;;;;;0.57;100.00;98613.06;4469692;32;20442;-74
2022/12/08 00:52:43;;;;;;;16.35;7.78;;;;;;;0.55;100.00;98612.31;4469773;32;20120;-74
2022/12/08 00:55:10;;;;;;;12.82;6.62;;;;;;;0.54;100.00;98610.66;4469913;32;20109;-74
2022/12/08 00:57:37;;;;;;;12.65;6.87;;;;;;;0.52;100.00;98615.88;4469461;32;20096;-74
2022/12/08 01:00:05;;;;;;;16.20;7.70;;;;;;;0.50;100.00;98611.72;4469732;32;20143;-74
2022/12/08 01:02:33;;;;;;;14.38;6.75;;;;;;;0.44;100.00;98618.03;4469690;32;20597;-74
2022/12/08 01:05:00;;;;;;;12.93;6.60;;;;;;;0.44;100.00;98612.03;4469772;32;20160;-74
2022/12/08 01:07:27;;;;;;;13.23;7.57;;;;;;;0.38;100.00;98614.91;4468813;32;20080;-74
2022/12/08 01:09:56;;;;;;;12.37;6.60;;;;;;;0.37;100.00;98616.66;4483248;32;20135;-74
2022/12/08 01:12:24;;;;;;;12.75;6.75;;;;;;;0.42;100.00;98611.28;4485364;31;20108;-74
2022/12/08 01:14:51;;;;;;;16.45;7.22;;;;;;;0.42;100.00;98619.81;4485234;31;20100;-74
2022/12/08 01:17:18;;;;;;;17.12;8.13;;;;;;;0.41;100.00;98614.75;4485395;32;20149;-74
2022/12/08 01:19:45;;;;;;;15.75;6.95;;;;;;;0.45;100.00;98606.78;4485640;32;20466;-74
2022/12/08 01:22:12;;;;;;;15.57;7.05;;;;;;;0.47;100.00;98612.72;4470011;32;20209;-74
2022/12/08 01:24:39;;;;;;;14.23;7.25;;;;;;;0.49;100.00;98607.47;4469581;32;20139;-74
2022/12/08 01:27:06;;;;;;;14.52;7.12;;;;;;;0.42;100.00;98608.69;4469378;32;20114;-74
2022/12/08 01:29:33;;;;;;;13.73;6.85;;;;;;;0.42;100.00;98614.66;4469476;32;20160;-74
2022/12/08 01:32:01;;;;;;;16.23;7.80;;;;;;;0.33;100.00;98613.41;4469535;32;20164;-74
2022/12/08 01:34:28;;;;;;;18.20;7.05;;;;;;;0.30;100.00;98611.00;4469474;32;20465;-74
2022/12/08 01:36:55;;;;;;;14.85;7.62;;;;;;;0.24;100.00;98605.28;4469266;32;20266;-74
2022/12/08 01:39:22;;;;;;;16.10;7.82;;;;;;;0.21;100.00;98602.88;4469809;32;20112;-74
2022/12/08 01:41:49;;;;;;;16.85;7.85;;;;;;;0.18;100.00;98601.28;4469390;32;20131;-74
2022/12/08 01:44:16;;;;;;;18.33;7.90;;;;;;;0.11;100.00;98603.31;4469612;32;20115;-74
2022/12/08 01:46:46;;;;;;;18.10;7.32;;;;;;;0.08;100.00;98600.91;4469165;32;20160;-74
2022/12/08 01:49:22;;;;;;;18.10;8.02;;;;;;;0.11;100.00;98597.34;4469480;32;20111;-74
2022/12/08 01:52:01;;;;;;;16.05;7.87;;;;;;;0.04;100.00;98594.22;4468414;32;20482;-74
2022/12/08 01:54:31;;;;;;;14.43;7.25;;;;;;;0.01;100.00;98596.13;4469542;32;20085;-74
2022/12/08 01:57:05;;;;;;;14.90;7.62;;;;;;;-0.03;100.00;98587.72;4469291;32;20200;-74
2022/12/08 01:59:35;;;;;;;19.98;7.05;;;;;;;-0.01;100.00;98591.06;4469491;32;20093;-74
2022/12/08 02:02:02;;;;;;;18.02;7.10;;;;;;;0.00;100.00;98587.59;4468172;32;20156;-74
2022/12/08 02:04:30;;;;;;;17.10;7.93;;;;;;;-0.07;100.00;98597.34;4469440;32;20124;-74
2022/12/08 02:06:58;;;;;;;16.70;8.07;;;;;;;-0.19;100.00;98585.88;4469345;32;20461;-74
2022/12/08 02:09:31;;;;;;;16.77;7.12;;;;;;;-0.30;100.00;98580.44;4480253;32;20642;-74
2022/12/08 02:11:58;;;;;;;14.55;6.45;;;;;;;-0.42;100.00;98581.03;4484704;31;20084;-74
2022/12/08 02:14:25;;;;;;;16.62;7.40;;;;;;;-0.58;100.00;98578.31;4484859;31;20160;-74
2022/12/08 02:17:27;;;;;;;15.80;6.75;;;;;;;-0.66;100.00;98577.84;4484823;31;20152;-74
2022/12/08 02:20:20;;;;;;;13.32;7.20;;;;;;;-0.72;100.00;98579.78;4483556;31;20115;-74
2022/12/08 02:22:59;;;;;;;18.40;7.57;;;;;;;-0.83;100.00;98583.75;4468875;32;20159;-74
2022/12/08 02:25:53;;;;;;;20.20;8.48;;;;;;;-0.85;100.00;98583.00;4469069;32;20420;-74
2022/12/08 02:28:47;;;;;;;15.52;7.40;;;;;;;-0.83;100.00;98582.03;4467558;32;20599;-74
2022/12/08 02:31:31;;;;;;;15.70;7.93;;;;;;;-0.64;100.00;98581.19;4468961;32;20077;-74
2022/12/08 02:34:28;;;;;;;20.58;8.43;;;;;;;-0.58;100.00;98575.75;4467652;32;20125;-74
2022/12/08 02:37:19;;;;;;;21.58;9.20;;;;;;;-0.54;100.00;98578.09;4468761;32;20156;-74
2022/12/08 02:39:55;;;;;;;23.23;8.43;;;;;;;-0.47;100.00;98578.66;4468773;32;20096;-74
2022/12/08 02:42:43;;;;;;;17.42;8.63;;;;;;;-0.40;100.00;98574.88;4467689;32;20159;-74
2022/12/08 02:45:21;;;;;;;21.05;8.13;;;;;;;-0.41;100.00;98564.66;4467729;32;20143;-74
2022/12/08 02:47:48;;;;;;;15.60;7.30;;;;;;;-0.42;100.00;98568.16;4467531;32;20119;-74
2022/12/08 02:50:15;;;;;;;12.15;6.57;;;;;;;-0.45;100.00;98563.97;4467769;32;20529;-74
2022/12/08 02:52:46;;;;;;;13.75;7.30;;;;;;;-0.31;100.00;98565.06;4468620;32;20100;-74
2022/12/08 02:55:17;;;;;;;14.85;6.97;;;;;;;-0.26;100.00;98574.25;4469154;32;20454;-74
2022/12/08 02:58:02;;;;;;;17.77;7.60;;;;;;;-0.51;100.00;98563.44;4468448;32;20131;-74
2022/12/08 03:00:42;;;;;;;19.33;7.90;;;;;;;-0.72;100.00;98566.09;4468545;32;20099;-75
2022/12/08 03:03:31;;;;;;;15.95;7.93;;;;;;;-0.66;100.00;98568.37;4467142;32;20582;-74
2022/12/08 03:06:21;;;;;;;15.48;7.32;;;;;;;-0.61;100.00;98566.41;4467171;32;20124;-74
2022/12/08 03:08:58;;;;;;;19.25;8.52;;;;;;;-0.58;100.00;98566.28;4473284;32;20172;-74
2022/12/08 03:11:35;;;;;;;15.95;7.95;;;;;;;-0.50;100.00;98565.09;4482701;32;20100;-74
2022/12/08 03:14:03;;;;;;;16.40;7.15;;;;;;;-0.45;100.00;98556.25;4484016;31;20109;-74
2022/12/08 03:16:33;;;;;;;13.23;7.07;;;;;;;-0.38;100.00;98559.34;4483147;32;20097;-74
2022/12/08 03:19:08;;;;;;;15.73;6.68;;;;;;;-0.27;100.00;98556.25;4482738;32;20108;-74
2022/12/08 03:21:36;;;;;;;15.43;7.25;;;;;;;-0.29;100.00;98552.94;4472891;31;20143;-74
2022/12/08 03:24:06;;;;;;;16.85;8.10;;;;;;;-0.23;100.00;98550.91;4466874;32;20093;-74
2022/12/08 03:26:46;;;;;;;15.35;7.60;;;;;;;-0.22;100.00;98552.56;4466916;32;20124;-74
2022/12/08 03:29:13;;;;;;;16.40;6.72;;;;;;;-0.16;100.00;98545.47;4466697;32;20125;-75
2022/12/08 03:31:45;;;;;;;14.25;6.95;;;;;;;-0.13;100.00;98553.87;4470105;32;20507;-74
2022/12/08 03:34:13;;;;;;;13.25;6.62;;;;;;;-0.09;100.00;98554.53;4470423;32;20119;-74
2022/12/08 03:36:40;;;;;;;15.13;7.10;;;;;;;-0.08;100.00;98541.59;4468887;32;20104;-74
2022/12/08 03:39:07;;;;;;;16.35;6.97;;;;;;;-0.03;100.00;98547.34;4470290;32;20516;-74
2022/12/08 03:41:34;;;;;;;16.95;7.80;;;;;;;0.03;100.00;98547.94;4470311;32;20089;-74
2022/12/08 03:44:01;;;;;;;12.18;6.47;;;;;;;0.03;100.00;98543.66;4468826;32;20160;-74
2022/12/08 03:46:30;;;;;;;18.15;7.07;;;;;;;0.06;100.00;98540.06;4470357;32;20120;-74
2022/12/08 03:48:56;;;;;;;19.25;7.97;;;;;;;0.05;100.00;98533.28;4470210;32;20112;-74
2022/12/08 03:51:23;;;;;;;17.15;7.62;;;;;;;0.04;100.00;98537.56;4470121;32;20144;-74
2022/12/08 03:53:50;;;;;;;20.08;7.45;;;;;;;0.05;100.00;98535.84;4470176;32;20472;-74
2022/12/08 03:56:33;;;;;;;16.35;6.87;;;;;;;0.08;100.00;98538.28;4470041;32;20112;-74
2022/12/08 03:59:02;;;;;;;14.05;7.15;;;;;;;0.11;100.00;98533.78;4470123;32;20093;-74
2022/12/08 04:01:29;;;;;;;16.95;8.00;;;;;;;0.15;100.00;98532.72;4470114;32;20144;-74
2022/12/08 04:03:57;;;;;;;18.98;8.25;;;;;;;0.19;100.00;98537.72;4469974;32;20156;-74
2022/12/08 04:06:24;;;;;;;18.00;9.07;;;;;;;0.24;100.00;98533.16;4470053;32;20115;-74
2022/12/08 04:08:51;;;;;;;18.08;8.27;;;;;;;0.23;100.00;98526.34;4476454;32;20084;-74
2022/12/08 04:11:18;;;;;;;17.50;8.48;;;;;;;0.22;100.00;98525.50;4485746;31;20163;-74
2022/12/08 04:13:46;;;;;;;17.52;7.97;;;;;;;0.32;100.00;98531.88;4485817;31;20450;-74
2022/12/08 04:16:19;;;;;;;20.95;8.20;;;;;;;0.35;100.00;98523.16;4486007;31;20104;-74
2022/12/08 04:18:47;;;;;;;24.02;9.63;;;;;;;0.38;100.00;98520.41;4485892;31;20168;-74
2022/12/08 04:21:14;;;;;;;22.17;9.65;;;;;;;0.43;100.00;98518.44;4476819;31;20180;-74
2022/12/08 04:23:41;;;;;;;20.75;9.10;;;;;;;0.48;100.00;98521.59;4470061;32;20415;-74
2022/12/08 04:26:08;;;;;;;19.23;8.25;;;;;;;0.50;100.00;98514.63;4469879;32;20120;-74
2022/12/08 04:28:36;;;;;;;20.42;8.60;;;;;;;0.50;100.00;98519.78;4469822;32;20158;-74
2022/12/08 04:31:03;;;;;;;15.27;7.82;;;;;;;0.44;100.00;98520.09;4469850;32;20092;-74
2022/12/08 04:33:31;;;;;;;23.27;8.80;;;;;;;0.49;100.00;98525.84;4469769;32;20168;-74
2022/12/08 04:35:58;;;;;;;15.63;8.73;;;;;;;0.40;100.00;98521.16;4469666;32;20093;-74
2022/12/08 04:38:25;;;;;;;19.77;9.00;;;;;;;0.47;100.00;98519.94;4469918;32;20533;-74
2022/12/08 04:40:53;;;;;;;16.92;7.75;;;;;;;0.60;100.00;98516.72;4469465;32;20512;-74
2022/12/08 04:43:20;;;;;;;17.80;8.13;;;;;;;0.57;100.00;98522.84;4469477;32;20340;-74
2022/12/08 04:45:47;;;;;;;18.67;8.77;;;;;;;0.59;100.00;98522.78;4469577;32;20093;-74
2022/12/08 04:48:14;;;;;;;27.92;13.18;;;;;;;0.46;100.00;98523.41;4469821;32;20149;-74
2022/12/08 04:50:43;;;;;;;22.25;11.20;;;;;;;0.38;100.00;98515.25;4470169;32;20097;-74
2022/12/08 04:53:11;;;;;;;20.40;8.82;;;;;;;0.36;100.00;98517.06;4469805;32;20546;-74
2022/12/08 04:55:40;;;;;;;18.90;8.38;;;;;;;0.32;100.00;98513.00;4469822;32;20164;-74
2022/12/08 04:58:11;;;;;;;21.12;9.98;;;;;;;0.28;100.00;98514.06;4469624;32;20164;-73
2022/12/08 05:00:40;;;;;;;25.77;10.85;;;;;;;0.35;100.00;98515.44;4470111;32;20176;-74
2022/12/08 05:03:07;;;;;;;20.17;9.70;;;;;;;0.39;100.00;98519.50;4469036;32;20476;-74
2022/12/08 05:05:34;;;;;;;31.23;12.37;;;;;;;0.44;100.00;98519.25;4469690;32;20096;-74
2022/12/08 05:08:01;;;;;;;26.65;11.48;;;;;;;0.45;100.00;98515.75;4470850;32;20088;-74
2022/12/08 05:10:29;;;;;;;24.83;10.77;;;;;;;0.50;100.00;98518.94;4484887;31;20100;-74
2022/12/08 05:12:57;;;;;;;22.73;10.82;;;;;;;0.49;100.00;98518.09;4485392;31;20102;-74
2022/12/08 05:15:25;;;;;;;22.15;11.20;;;;;;;0.57;100.00;98514.31;4485023;31;20112;-74
2022/12/08 05:17:52;;;;;;;28.55;10.50;;;;;;;0.58;100.00;98521.94;4484786;31;20124;-74
2022/12/08 05:20:19;;;;;;;20.70;10.05;;;;;;;0.62;100.00;98523.47;4482601;31;20549;-74
2022/12/08 05:22:46;;;;;;;24.98;10.77;;;;;;;0.68;100.00;98520.56;4469475;32;20161;-74
2022/12/08 05:25:13;;;;;;;26.27;10.23;;;;;;;0.60;100.00;98519.28;4469532;32;20118;-74
2022/12/08 05:27:41;;;;;;;32.20;11.95;;;;;;;0.52;100.00;98505.06;4469252;32;20175;-74
2022/12/08 05:30:09;;;;;;;28.05;11.82;;;;;;;0.45;100.00;98506.28;4469341;32;20092;-74
2022/12/08 05:32:36;;;;;;;26.77;13.15;;;;;;;0.45;100.00;98501.13;4469431;32;20092;-74
2022/12/08 05:35:03;;;;;;;28.30;12.60;;;;;;;0.56;100.00;98498.00;4469264;32;20176;-73
2022/12/08 05:37:31;;;;;;;25.80;12.65;;;;;;;0.59;100.00;98497.84;4469637;32;20117;-74
2022/12/08 05:39:58;;;;;;;27.77;12.73;;;;;;;0.56;100.00;98502.31;4469499;32;20130;-74
2022/12/08 05:42:25;;;;;;;34.47;13.52;;;;;;;0.47;100.00;98503.62;4469291;32;20127;-74
2022/12/08 05:44:52;;;;;;;32.88;13.52;;;;;;;0.49;100.00;98501.81;4468709;32;20120;-74
2022/12/08 05:47:19;;;;;;;31.20;12.68;;;;;;;0.50;100.00;98500.88;4469260;32;20623;-73
2022/12/08 05:49:46;;;;;;;25.02;11.93;;;;;;;0.52;100.00;98506.81;4469153;32;20168;-74
2022/12/08 05:52:15;;;;;;;34.45;13.10;;;;;;;0.48;100.00;98500.97;4468298;32;20422;-74
2022/12/08 05:54:43;;;;;;;27.52;12.32;;;;;;;0.52;100.00;98507.63;4469052;32;20119;-74
2022/12/08 05:57:10;;;;;;;27.30;12.23;;;;;;;0.64;100.00;98513.06;4469315;32;20156;-73
2022/12/08 05:59:38;;;;;;;24.58;11.85;;;;;;;0.65;100.00;98506.97;4469363;32;20553;-74
2022/12/08 06:02:05;;;;;;;32.95;12.88;;;;;;;0.65;100.00;98504.41;4468847;32;20123;-74
2022/12/08 06:04:32;;;;;;;27.55;12.23;;;;;;;0.69;100.00;98509.31;4469278;32;20794;-73
2022/12/08 06:06:59;;;;;;;27.62;12.18;;;;;;;0.69;100.00;98504.16;4468684;32;20130;-73
2022/12/08 06:09:26;;;;;;;26.23;12.25;;;;;;;0.79;100.00;98506.25;4479899;32;20096;-74
2022/12/08 06:11:53;;;;;;;27.30;11.85;;;;;;;0.78;100.00;98502.84;4485089;31;20210;-74
2022/12/08 06:14:20;;;;;;;27.65;11.50;;;;;;;0.69;100.00;98508.50;4484067;31;20118;-74
2022/12/08 06:16:47;;;;;;;26.48;12.35;;;;;;;0.72;100.00;98505.75;4484774;31;20635;-74
2022/12/08 06:19:15;;;;;;;31.75;15.20;;;;;;;0.79;100.00;98512.25;4485087;32;20118;-74
2022/12/08 06:21:42;;;;;;;28.20;12.85;;;;;;;0.84;100.00;98512.81;4472779;31;20172;-75
2022/12/08 06:24:09;;;;;;;31.73;13.52;;;;;;;0.86;100.00;98512.75;4468723;32;20104;-74
2022/12/08 06:26:36;;;;;;;30.30;13.40;;;;;;;0.74;100.00;98511.66;4468591;32;20176;-74
2022/12/08 06:29:03;;;;;;;29.08;13.10;;;;;;;0.77;100.00;98514.06;4468088;32;20100;-75
2022/12/08 06:31:30;;;;;;;30.35;13.32;;;;;;;0.75;100.00;98513.31;4469123;32;20088;-75
2022/12/08 06:33:58;;;;;;;30.15;15.10;;;;;;;0.78;100.00;98513.16;4469080;32;20160;-75
2022/12/08 06:36:26;;;;;;;31.55;14.02;;;;;;;0.79;100.00;98514.84;4468489;32;20180;-75
2022/12/08 06:38:54;;;;;;;41.45;16.05;;;;;;;0.87;100.00;98522.97;4468730;32;20446;-75
2022/12/08 06:41:21;;;;;;;29.45;14.20;;;;;;;0.82;100.00;98514.66;4468196;32;20081;-75
2022/12/08 06:43:48;;;;;;;33.80;14.48;;;;;;;0.82;100.00;98522.41;4468463;32;20467;-75
2022/12/08 06:46:17;;;;;;;29.27;14.68;;;;;;;0.86;100.00;98518.75;4468448;32;20160;-74
2022/12/08 06:48:45;;;;;;;35.33;15.23;;;;;;;1.02;100.00;98520.50;4466805;32;20085;-73
2022/12/08 06:51:18;;;;;;;35.88;15.55;;;;;;;1.05;100.00;98522.91;4459641;32;20126;-73
2022/12/08 06:53:45;;;;;;;33.75;15.10;;;;;;;1.03;100.00;98524.72;4468127;32;20148;-74
2022/12/08 06:56:14;;;;;;;35.03;14.50;;;;;;;0.98;100.00;98516.41;4484215;31;20097;-74
2022/12/08 06:58:42;;;;;;;31.35;13.60;;;;;;;0.97;100.00;98519.91;4483232;31;20664;-74
2022/12/08 07:01:16;;;;;;;33.92;16.05;;;;;;;1.05;100.00;98526.31;4483944;31;20529;-74
2022/12/08 07:03:43;;;;;;;29.60;13.57;;;;;;;1.02;100.00;98525.66;4483051;31;20112;-74
2022/12/08 07:06:15;;;;;;;33.40;13.45;;;;;;;1.04;100.00;98521.25;4484244;31;20100;-75
2022/12/08 07:08:43;;;;;;;34.85;13.57;;;;;;;1.15;100.00;98526.66;4477331;32;20140;-74
2022/12/08 07:11:11;;;;;;;34.17;14.35;;;;;;;1.12;100.00;98532.00;4479543;31;20100;-73
2022/12/08 07:13:44;;;;;;;;;;;;;;;1.11;100.00;98540.63;4479763;32;20140;-74
2022/12/08 07:16:11;;;;;;;33.90;15.05;;;;;;;1.16;100.00;98541.22;4484623;31;19983;-74
2022/12/08 07:18:40;;;;;;;31.23;15.18;;;;;;;1.22;100.00;98533.12;4481452;32;20624;-73
2022/12/08 07:21:09;;;;;;;28.50;14.32;;;;;;;1.11;100.00;98532.06;4477088;31;20128;-74
2022/12/08 07:23:40;;;;;;;33.17;15.30;;;;;;;1.05;100.00;98533.22;4482211;32;20112;-73
2022/12/08 07:26:09;;;;;;;37.15;15.35;;;;;;;1.15;100.00;98536.13;4482628;31;20159;-73
2022/12/08 07:28:38;;;;;;;30.85;13.98;;;;;;;1.26;100.00;98527.78;4484058;31;20191;-75
2022/12/08 07:31:06;;;;;;;33.83;14.15;;;;;;;1.30;100.00;98531.88;4484080;31;20115;-73
2022/12/08 07:33:34;;;;;;;31.25;14.82;;;;;;;1.38;100.00;98532.31;4483015;31;20168;-72
2022/12/08 07:36:06;;;;;;;34.80;14.25;;;;;;;1.51;100.00;98525.53;4484511;31;20108;-72
2022/12/08 07:38:33;;;;;;;28.42;12.95;;;;;;;1.69;100.00;98526.22;4483716;31;20136;-73
2022/12/08 07:41:01;;;;;;;32.05;13.40;;;;;;;1.80;100.00;98515.28;4484555;32;20177;-73
2022/12/08 07:43:28;;;;;;;28.08;13.43;;;;;;;1.84;100.00;98506.44;4483875;31;20097;-74
2022/12/08 07:45:55;;;;;;;32.83;14.95;;;;;;;1.95;100.00;98517.00;4483267;31;20130;-74
2022/12/08 07:48:22;;;;;;;29.80;12.88;;;;;;;1.96;100.00;98523.00;4486015;32;20454;-74
2022/12/08 07:50:49;;;;;;;30.88;13.38;;;;;;;2.05;100.00;98524.22;4483184;32;20088;-72
2022/12/08 07:53:16;;;;;;;31.17;12.57;;;;;;;2.15;100.00;98520.19;4482685;31;20096;-73
2022/12/08 07:55:43;;;;;;;30.45;13.45;;;;;;;2.21;100.00;98525.00;4485050;32;20138;-71
2022/12/08 07:58:10;;;;;;;27.65;12.60;;;;;;;2.26;100.00;98525.53;4484366;32;20104;-72
2022/12/08 08:00:37;;;;;;;30.85;13.20;;;;;;;2.23;100.00;98523.13;4485336;31;20174;-72
2022/12/08 08:03:07;;;;;;;32.17;13.10;;;;;;;2.28;100.00;98526.25;4482145;32;20101;-73
2022/12/08 08:05:34;;;;;;;35.85;13.98;;;;;;;2.29;100.00;98530.53;4481713;31;20126;-73
2022/12/08 08:08:01;;;;;;;34.17;15.68;;;;;;;2.41;100.00;98530.72;4479661;31;20138;-72
2022/12/08 08:10:29;;;;;;;33.70;12.90;;;;;;;2.43;100.00;98529.69;4480551;32;20718;-73
2022/12/08 08:12:59;;;;;;;31.73;13.60;;;;;;;2.59;100.00;98519.28;4480378;31;20097;-74
2022/12/08 08:15:26;;;;;;;28.15;13.00;;;;;;;2.60;100.00;98520.09;4484662;31;20374;-73
2022/12/08 08:17:54;;;;;;;30.98;14.35;;;;;;;2.75;100.00;98513.97;4482493;32;20166;-73
2022/12/08 08:20:21;;;;;;;29.45;12.15;;;;;;;2.77;100.00;98519.06;4482078;31;20454;-73
2022/12/08 08:22:49;;;;;;;25.58;12.68;;;;;;;2.84;100.00;98510.81;4477169;32;20108;-72
2022/12/08 08:25:23;;;;;;;29.92;13.43;;;;;;;2.95;100.00;98517.09;4484866;31;20202;-71
2022/12/08 08:27:50;;;;;;;26.87;12.13;;;;;;;2.91;100.00;98516.47;4483764;31;20129;-72
2022/12/08 08:30:17;;;;;;;26.87;11.93;;;;;;;2.84;100.00;98510.81;4482462;32;20214;-71
2022/12/08 08:32:47;;;;;;;29.70;12.75;;;;;;;3.11;100.00;98511.81;4481523;31;20124;-72
2022/12/08 08:35:15;;;;;;;27.48;12.82;;;;;;;3.16;100.00;98500.25;4482494;32;20084;-72
2022/12/08 08:37:42;;;;;;;27.65;13.27;;;;;;;3.31;100.00;98502.78;4482698;32;20176;-72
2022/12/08 08:40:16;;;;;;;33.75;14.27;;;;;;;3.13;100.00;98507.34;4485097;31;20107;-69
2022/12/08 08:42:43;;;;;;;27.58;12.88;;;;;;;3.25;100.00;98518.69;4483705;31;20202;-76
2022/12/08 08:45:11;;;;;;;35.00;13.80;;;;;;;3.47;100.00;98510.41;4482684;31;20144;-72
2022/12/08 08:47:38;;;;;;;34.75;11.70;;;;;;;3.33;100.00;98506.94;4480993;31;20116;-72
2022/12/08 08:50:05;;;;;;;23.25;10.77;;;;;;;3.70;100.00;98498.56;4468118;32;20160;-71
2022/12/08 08:52:33;;;;;;;28.55;12.02;;;;;;;3.81;100.00;98496.06;4477150;32;20081;-71
2022/12/08 08:55:00;;;;;;;25.17;11.38;;;;;;;3.69;100.00;98497.72;4482861;31;20207;-71
2022/12/08 08:57:28;;;;;;;28.23;12.07;;;;;;;3.77;100.00;98504.16;4485313;31;20104;-72
2022/12/08 08:59:55;;;;;;;24.80;11.52;;;;;;;3.68;100.00;98519.38;4483132;31;20089;-71
2022/12/08 09:02:22;;;;;;;29.08;11.55;;;;;;;3.68;100.00;98521.97;4482487;32;20183;-71
2022/12/08 09:04:49;;;;;;;24.52;11.52;;;;;;;3.44;100.00;98495.88;4480128;32;20151;-70
2022/12/08 09:07:16;;;;;;;29.27;11.65;;;;;;;3.63;100.00;98498.09;4474581;32;20112;-74
2022/12/08 09:09:43;;;;;;;25.80;11.18;;;;;;;3.74;100.00;98500.03;4476844;32;20796;-73
2022/12/08 09:12:11;;;;;;;18.73;9.75;;;;;;;3.67;100.00;98503.94;4474395;32;20467;-73
2022/12/08 09:14:39;;;;;;;25.05;10.90;;;;;;;3.71;100.00;98503.62;4474820;31;20097;-73
2022/12/08 09:17:08;;;;;;;27.45;10.20;;;;;;;3.68;100.00;98514.19;4474842;32;20100;-72
2022/12/08 09:19:36;;;;;;;19.60;9.98;;;;;;;3.87;100.00;98515.56;4478235;32;20505;-73
2022/12/08 09:22:04;;;;;;;23.52;10.50;;;;;;;3.74;100.00;98505.19;4478944;31;20092;-75
2022/12/08 09:24:31;;;;;;;24.83;10.10;;;;;;;3.65;100.00;98509.22;4481727;31;20159;-72
2022/12/08 09:26:58;;;;;;;25.75;10.82;;;;;;;3.68;100.00;98508.16;4477046;32;20175;-73
2022/12/08 09:29:25;;;;;;;21.37;10.57;;;;;;;3.78;100.00;98501.44;4475064;32;20510;-73
2022/12/08 09:32:00;;;;;;;23.33;10.20;;;;;;;3.71;100.00;98493.25;4474613;32;20501;-71
2022/12/08 09:34:27;;;;;;;24.98;11.32;;;;;;;3.55;100.00;98472.69;4472745;32;20114;-70
2022/12/08 09:36:54;;;;;;;25.98;11.20;;;;;;;3.65;100.00;98469.50;4480541;32;20187;-72
2022/12/08 09:39:22;;;;;;;21.30;10.60;;;;;;;3.63;100.00;98469.59;4476640;32;20569;-73
2022/12/08 09:41:55;;;;;;;24.63;11.35;;;;;;;3.67;100.00;98478.84;4475305;31;20113;-71
2022/12/08 09:44:50;;;;;;;26.20;11.18;;;;;;;3.83;100.00;98477.81;4466125;32;20168;-71
2022/12/08 09:47:27;;;;;;;19.70;9.82;;;;;;;4.06;100.00;98479.72;4476264;32;20127;-72
2022/12/08 09:50:21;;;;;;;24.05;10.45;;;;;;;3.87;100.00;98481.88;4487509;31;20123;-72
2022/12/08 09:53:13;;;;;;;19.58;10.10;;;;;;;3.78;100.00;98470.38;4482237;31;20096;-72
2022/12/08 09:55:44;;;;;;;20.88;10.52;;;;;;;3.65;100.00;98449.62;4480436;31;20108;-73
2022/12/08 09:58:20;;;;;;;23.75;10.93;;;;;;;3.67;100.00;98457.31;4482551;31;20096;-72
2022/12/08 10:00:47;;;;;;;23.98;10.43;;;;;;;3.39;100.00;98466.84;4475153;32;20108;-73
2022/12/08 10:03:14;;;;;;;24.85;10.77;;;;;;;3.54;100.00;98465.88;4481288;32;20092;-73
2022/12/08 10:05:57;;;;;;;24.20;11.20;;;;;;;3.75;100.00;98459.38;4482521;31;20506;-74
2022/12/08 10:08:32;;;;;;;28.52;10.88;;;;;;;3.64;100.00;98467.88;4490114;31;20104;-74
2022/12/08 10:11:03;;;;;;;30.62;12.63;;;;;;;3.72;100.00;98456.06;4481000;32;20102;-74
2022/12/08 10:13:56;;;;;;;22.83;10.68;;;;;;;3.63;100.00;98461.84;4481502;32;20181;-74
2022/12/08 10:16:31;;;;;;;25.25;12.07;;;;;;;3.98;100.00;98456.09;4478525;32;20104;-72
2022/12/08 10:19:09;;;;;;;24.70;10.73;;;;;;;3.77;100.00;98455.78;4482064;31;20135;-74
2022/12/08 10:21:38;;;;;;;23.98;11.57;;;;;;;3.83;100.00;98451.91;4471176;32;20110;-73
2022/12/08 10:24:12;;;;;;;27.73;12.32;;;;;;;3.85;100.00;98447.47;4481427;32;20544;-73
2022/12/08 10:26:39;;;;;;;27.10;11.98;;;;;;;3.94;100.00;98448.59;4471059;32;20169;-75
2022/12/08 10:29:13;;;;;;;26.02;10.00;;;;;;;3.88;100.00;98440.31;4478176;32;20093;-73
2022/12/08 10:31:40;;;;;;;26.37;10.68;;;;;;;4.03;100.00;98435.06;4477549;32;20188;-73
2022/12/08 10:34:17;;;;;;;32.42;11.68;;;;;;;4.01;100.00;98427.38;4483225;31;20819;-73
2022/12/08 10:36:49;;;;;;;24.95;10.88;;;;;;;4.08;100.00;98426.00;4480156;31;20178;-72
2022/12/08 10:39:28;;;;;;;25.00;10.23;;;;;;;3.86;100.00;98421.47;4480327;31;20148;-73
2022/12/08 10:42:01;;;;;;;22.08;10.80;;;;;;;3.96;100.00;98408.69;4483737;31;20123;-73
2022/12/08 10:44:29;;;;;;;24.95;11.30;;;;;;;3.99;100.00;98405.91;4480880;32;20461;-74
2022/12/08 10:46:56;;;;;;;27.83;11.57;;;;;;;3.79;100.00;98398.66;4482014;31;20122;-74
2022/12/08 10:49:31;;;;;;;31.35;12.75;;;;;;;3.93;100.00;98401.13;4482727;32;20122;-73
2022/12/08 10:51:58;;;;;;;22.92;11.02;;;;;;;4.12;100.00;98399.87;4482493;31;20107;-73
2022/12/08 10:54:33;;;;;;;19.62;10.15;;;;;;;4.07;100.00;98395.84;4482034;32;20101;-74
2022/12/08 10:57:00;;;;;;;25.90;11.52;;;;;;;4.13;100.00;98386.00;4483314;31;20162;-72
2022/12/08 10:59:28;;;;;;;21.90;10.15;;;;;;;4.11;100.00;98377.50;4483797;31;20145;-74
2022/12/08 11:01:55;;;;;;;22.02;11.20;;;;;;;4.07;100.00;98371.69;4480938;31;20148;-73
2022/12/08 11:04:29;;;;;;;23.10;11.55;;;;;;;3.91;100.00;98364.97;4482392;32;20158;-74
2022/12/08 11:06:56;;;;;;;21.92;10.98;;;;;;;3.94;100.00;98366.53;4480970;32;20769;-72
2022/12/08 11:09:47;;;;;;;26.98;12.00;;;;;;;3.82;100.00;98364.78;4477245;32;20170;-74
2022/12/08 11:12:16;;;;;;;23.05;10.35;;;;;;;3.77;100.00;98344.38;4482422;32;20140;-74
2022/12/08 11:14:44;;;;;;;23.62;9.80;;;;;;;3.66;100.00;98334.69;4480801;32;20811;-73
2022/12/08 11:17:14;;;;;;;23.05;10.02;;;;;;;3.80;100.00;98328.59;4482847;31;20127;-73
2022/12/08 11:19:55;;;;;;;22.60;10.52;;;;;;;3.90;100.00;98333.97;4478798;31;20100;-73
2022/12/08 11:22:36;;;;;;;24.75;12.07;;;;;;;3.85;100.00;98317.94;4481422;32;20080;-75
2022/12/08 11:25:06;;;;;;;27.02;11.73;;;;;;;3.84;100.00;98314.47;4472927;32;20574;-73
2022/12/08 11:27:35;;;;;;;20.23;9.93;;;;;;;3.73;100.00;98311.81;4483384;31;20119;-73
2022/12/08 11:30:26;;;;;;;24.98;10.27;;;;;;;3.74;100.00;98308.31;4477496;32;20459;-74
2022/12/08 11:32:55;;;;;;;22.15;9.77;;;;;;;3.83;100.00;98306.81;4434693;32;20152;-74
2022/12/08 11:35:29;;;;;;;23.25;10.90;;;;;;;3.92;100.00;98306.19;4447636;32;20125;-73
2022/12/08 11:38:04;;;;;;;23.17;10.02;;;;;;;3.68;100.00;98300.94;4435271;32;20125;-74